Latest Coastal Weather Observations for Yarram Airport

IDV60701

Issued at 7:55 pm EST Thursday 24 April 2014 (issued every 10 minutes, with the page automatically refreshed every 10 minutes)

About coastal observations | Map of coastal stations | Coastal observations for VIC | Marine services | Other Formats
Station Details ID: 085151 Name: YARRAM AIRPORT Lat: -38.56 Lon: 146.75 Height: 17.9 m
Data from the previous 72 hours. | See also: Recent months at Yarram Airport
Date/Time
EST
Temp

°C
Wind Pressure Rain
since 9am
mm
Weather Cloud Vis
km
Sea
Height
m
Swell
Dir
 
Speed
knots
Gust
knots
hPa Trend Height
m
Period
s
Dir
24/07:30pm 8.5 N 7 8 1020.3 - 0.0 - - - - - - -
24/07:00pm 7.7 NNW 5 7 1020.1 - 0.0 - - - - - - -
24/06:30pm 8.8 WNW 8 8 1019.5 - 0.0 - - - - - - -
24/06:00pm 10.7 W 7 11 1019.1 - 0.0 - - - - - - -
24/05:30pm 11.1 WSW 8 11 1018.5 - 0.0 - - - - - - -
24/05:00pm 13.0 WSW 10 14 1017.9 - 0.0 - - - - - - -
24/04:39pm 13.4 W 15 25 1017.4 - 0.0 - - - - - - -
24/04:30pm 13.2 W 14 20 1017.3 - 0.0 - - - - - - -
24/04:04pm 14.4 WSW 19 31 1017.1 - 0.0 - - - - - - -
24/04:00pm 14.8 WSW 18 25 1017.0 - 0.0 - - - - - - -
24/03:30pm 14.6 WSW 21 28 1016.6 - 0.0 - - - - - - -
24/03:02pm 14.7 WSW 20 30 1016.1 - 0.0 - - - - - - -
24/03:00pm 14.8 WSW 21 30 1016.1 - 0.0 - - - - - - -
24/02:30pm 14.7 WSW 21 28 1016.0 - 0.0 - - - - - - -
24/02:11pm 16.2 WSW 21 31 1015.6 - 0.0 - - - - - - -
24/02:00pm 15.6 WSW 24 32 1015.3 - 0.0 - - - - - - -
24/01:30pm 16.2 W 24 35 1014.8 - 0.0 - - - - - - -
24/01:00pm 14.6 WSW 22 32 1015.0 - 0.0 - - - - - - -
24/12:53pm 14.7 WSW 23 33 1014.9 - 0.0 - - - - - - -
24/12:30pm 15.7 W 23 31 1014.5 - 0.0 - - - - - - -
24/12:00pm 15.7 W 25 36 1013.9 - 0.0 - - - - - - -
24/11:31am 15.7 W 23 33 1013.8 - 0.0 - - - - - - -
24/11:30am 15.4 W 24 33 1013.7 - 0.0 - - - - - - -
24/11:06am 14.8 WSW 21 31 1013.6 - 0.0 - - - - - - -
24/11:00am 14.7 WSW 20 29 1013.5 - 0.0 - - - - - - -
24/10:33am 15.3 W 16 28 1013.1 - 0.0 - - - - - - -
24/10:30am 15.3 W 16 24 1013.0 - 0.0 - - - - - - -
24/10:00am 13.9 W 13 18 1012.7 - 0.0 - - - - - - -
24/09:30am 13.2 W 17 24 1012.4 - 0.0 - - - - - - -
24/09:00am 14.2 W 20 26 1011.6 - 0.0 - - - - - - -
24/08:36am 15.8 W 17 29 1010.8 - 0.0 - - - - - - -
24/08:30am 16.0 WNW 14 24 1010.6 - 0.0 - - - - - - -
24/08:00am 15.6 NW 15 21 1010.1 - 0.0 - - - - - - -
24/07:35am 16.0 WNW 17 27 1009.4 - 0.0 - - - - - - -
24/07:30am 15.8 WNW 15 21 1009.4 - 0.0 - - - - - - -
24/07:00am 15.2 NW 14 21 1009.1 - 0.0 - - - - - - -
24/06:44am 15.8 NW 15 25 1009.0 - 0.0 - - - - - - -
24/06:30am 14.8 NW 12 17 1009.2 - 0.0 - - - - - - -
24/06:00am 13.7 NW 8 11 1009.0 - 0.0 - - - - - - -
24/05:30am 13.6 NW 11 16 1009.0 - 0.0 - - - - - - -
24/05:00am 12.9 NW 11 18 1008.8 - 0.0 - - - - - - -
24/04:30am 11.7 NW 11 13 1008.8 - 0.0 - - - - - - -
24/04:00am 12.1 NNW 10 13 1008.8 - 0.0 - - - - - - -
24/03:30am 10.6 NNW 8 10 1008.9 - 0.0 - - - - - - -
24/03:00am 7.1 N 6 7 1009.3 - 0.0 - - - - - - -
24/02:30am 6.9 NNE 4 8 1009.9 - 0.0 - - - - - - -
24/02:00am 7.4 CALM 0 4 1010.3 - 0.0 - - - - - - -
24/01:30am 6.2 NNE 5 7 1010.6 - 0.0 - - - - - - -
24/01:00am 6.0 N 1 5 1010.9 - 0.0 - - - - - - -
24/12:30am 6.3 CALM 0 0 1011.3 - 0.0 - - - - - - -
24/12:00am 5.7 NW 0 0 1011.5 - 0.0 - - - - - - -
 
Date/Time
EST
Temp

°C
Wind Pressure Rain
since 9am
mm
Weather Cloud Vis
km
Sea
Height
m
Swell
Dir
 
Speed
knots
Gust
knots
hPa Trend Height
m
Period
s
Dir
23/11:30pm 7.6 WSW 3 4 1011.7 - 0.0 - - - - - - -
23/11:00pm 7.9 CALM 0 3 1012.1 - 0.0 - - - - - - -
23/10:30pm 8.6 W 3 4 1012.5 - 0.0 - - - - - - -
23/10:00pm 8.4 CALM 0 0 1012.8 - 0.0 - - - - - - -
23/09:30pm 8.6 N 1 3 1012.9 - 0.0 - - - - - - -
23/09:00pm 8.2 NNE 5 5 1012.9 - 0.0 - - - - - - -
23/08:30pm 8.8 NNE 6 7 1013.0 - 0.0 - - - - - - -
23/08:00pm 9.1 N 4 4 1013.3 - 0.0 - - - - - - -
23/07:30pm 9.7 N 3 4 1013.6 - 0.0 - - - - - - -
23/07:00pm 9.8 NNE 4 4 1013.5 - 0.0 - - - - - - -
23/06:30pm 11.4 NE 3 4 1013.4 - 0.0 - - - - - - -
23/06:00pm 13.0 ENE 3 4 1013.3 - 0.0 - - - - - - -
23/05:30pm 14.4 E 4 5 1013.2 - 0.0 - - - - - - -
23/05:00pm 15.7 E 2 4 1013.1 - 0.0 - - - - - - -
23/04:30pm 16.2 ESE 3 3 1013.2 - 0.0 - - - - - - -
23/04:00pm 16.6 E 3 5 1013.1 - 0.0 - - - - - - -
23/03:30pm 16.8 SE 5 6 1013.2 - 0.0 - - - - - - -
23/03:00pm 17.1 SSE 6 8 1013.2 - 0.0 - - - - - - -
23/02:30pm 17.2 S 10 13 1013.3 - 0.0 - - - - - - -
23/02:00pm 18.5 WSW 5 7 1013.3 - 0.0 - - - - - - -
23/01:30pm 18.2 CALM 0 3 1013.4 - 0.0 - - - - - - -
23/01:00pm 17.3 CALM 0 0 1013.7 - 0.0 - - - - - - -
23/12:30pm 17.9 N 2 5 1014.3 - 0.0 - - - - - - -
23/12:00pm 16.9 CALM 0 3 1014.9 - 0.0 - - - - - - -
23/11:30am 16.8 NNE 6 8 1015.3 - 0.0 - - - - - - -
23/11:00am 16.1 NE 6 7 1015.7 - 0.0 - - - - - - -
23/10:30am 16.1 NE 5 7 1016.0 - 0.0 - - - - - - -
23/10:00am 15.7 CALM 0 0 1016.2 - 0.0 - - - - - - -
23/09:30am 14.7 CALM 0 0 1016.4 - 0.0 - - - - - - -
23/09:00am 14.5 CALM 0 0 1016.4 - 0.8 - - - - - - -
23/08:30am 13.6 CALM 0 0 1016.4 - 0.8 - - - - - - -
23/08:00am 12.2 CALM 0 0 1016.5 - 0.8 - - - - - - -
23/07:30am 12.0 CALM 0 0 1016.5 - 0.8 - - - - - - -
23/07:00am 11.6 CALM 0 0 1016.3 - 0.8 - - - - - - -
23/06:30am 11.8 CALM 0 0 1016.2 - 0.8 - - - - - - -
23/06:00am 11.8 CALM 0 0 1016.2 - 0.8 - - - - - - -
23/05:30am 12.5 CALM 0 0 1016.2 - 0.8 - - - - - - -
23/05:00am 12.6 CALM 0 0 1016.3 - 0.8 - - - - - - -
23/04:30am 12.8 CALM 0 0 1016.2 - 0.8 - - - - - - -
23/04:00am 12.9 CALM 0 0 1016.2 - 0.8 - - - - - - -
23/03:30am 12.5 NNW 3 4 1016.3 - 0.8 - - - - - - -
23/03:00am 12.6 N 4 4 1016.4 - 0.8 - - - - - - -
23/02:30am 12.6 NNE 3 4 1016.5 - 0.8 - - - - - - -
23/02:00am 12.7 NNE 4 4 1016.8 - 0.8 - - - - - - -
23/01:30am 12.8 N 3 3 1017.0 - 0.8 - - - - - - -
23/01:00am 12.7 NNW 4 5 1017.2 - 0.8 - - - - - - -
23/12:30am 13.2 W 4 5 1017.2 - 0.8 - - - - - - -
23/12:00am 13.3 WNW 4 5 1017.3 - 0.8 - - - - - - -
 
Date/Time
EST
Temp

°C
Wind Pressure Rain
since 9am
mm
Weather Cloud Vis
km
Sea
Height
m
Swell
Dir
 
Speed
knots
Gust
knots
hPa Trend Height
m
Period
s
Dir
22/11:30pm 13.5 NW 4 5 1017.4 - 0.8 - - - - - - -
22/11:00pm 13.6 W 6 7 1017.4 - 0.8 - - - - - - -
22/10:30pm 13.8 WSW 6 7 1017.5 - 0.8 - - - - - - -
22/10:00pm 13.8 W 4 5 1017.3 - 0.8 - - - - - - -
22/09:30pm 13.5 W 5 6 1017.2 - 0.8 - - - - - - -
22/09:00pm 13.7 W 4 5 1017.0 - 0.8 - - - - - - -
22/08:30pm 14.3 W 4 5 1016.9 - 0.8 - - - - - - -
22/08:00pm 14.8 W 6 8 1016.9 - 0.8 - - - - - - -
22/07:30pm 14.8 WNW 5 8 1016.7 - 0.8 - - - - - - -
22/07:00pm 14.7 WNW 5 7 1016.4 - 0.8 - - - - - - -
22/06:30pm 14.8 WNW 6 8 1015.8 - 0.8 - - - - - - -
22/06:00pm 15.0 W 7 8 1015.3 - 0.8 - - - - - - -
22/05:30pm 15.2 WSW 9 11 1014.9 - 0.8 - - - - - - -
22/05:00pm 16.0 W 6 8 1014.4 - 0.8 - - - - - - -
22/04:30pm 16.3 WNW 9 11 1014.3 - 0.8 - - - - - - -
22/04:00pm 16.6 W 12 16 1014.2 - 0.8 - - - - - - -
22/03:30pm 17.6 W 10 14 1013.9 - 0.8 - - - - - - -
22/03:00pm 16.6 WNW 8 10 1013.8 - 0.8 - - - - - - -
22/02:30pm 16.3 W 9 11 1013.6 - 0.6 - - - - - - -
22/02:00pm 16.2 W 9 14 1013.6 - 0.6 - - - - - - -
22/01:30pm 17.2 WNW 9 13 1013.6 - 0.2 - - - - - - -
22/01:00pm 18.3 NW 12 18 1013.5 - 0.0 - - - - - - -
22/12:30pm 18.5 NW 12 17 1013.6 - 0.0 - - - - - - -
22/12:00pm 17.3 NNW 14 23 1013.6 - 0.0 - - - - - - -
22/11:30am 16.9 NW 15 22 1014.0 - 0.0 - - - - - - -
22/11:00am 16.3 NW 10 14 1014.3 - 0.0 - - - - - - -
22/10:30am 16.5 NNW 15 21 1014.0 - 0.0 - - - - - - -
22/10:00am 15.8 NNW 13 17 1014.1 - 0.0 - - - - - - -
22/09:30am 15.6 N 11 16 1014.7 - 0.0 - - - - - - -
22/09:00am 15.5 NW 13 19 1016.1 - 0.2 - - - - - - -
22/08:30am 14.7 W 10 15 1016.0 - 0.2 - - - - - - -
22/08:00am 13.2 SW 12 15 1015.7 - 0.0 - - - - - - -
22/07:30am 13.2 W 4 6 1014.6 - 0.0 - - - - - - -
22/07:00am 13.5 W 6 7 1014.1 - 0.0 - - - - - - -
22/06:30am 12.6 W 7 8 1013.9 - 0.0 - - - - - - -
22/06:00am 12.6 WSW 5 7 1013.5 - 0.0 - - - - - - -
22/05:30am 14.3 NNE 5 7 1012.6 - 0.0 - - - - - - -
22/05:00am 15.1 W 7 9 1012.6 - 0.0 - - - - - - -
22/04:30am 16.0 WSW 12 16 1012.7 - 0.0 - - - - - - -
22/04:00am 16.3 SW 15 20 1012.7 - 0.0 - - - - - - -
22/03:30am 17.7 SW 12 21 1012.3 - 0.0 - - - - - - -
22/03:00am 17.5 SSW 11 15 1011.3 - 0.0 - - - - - - -
22/02:30am 19.2 NNW 7 10 1011.2 - 0.0 - - - - - - -
22/02:00am 19.7 NNW 10 14 1011.5 - 0.0 - - - - - - -
22/01:30am 19.7 NNW 13 18 1011.6 - 0.0 - - - - - - -
22/01:00am 20.2 NNW 14 21 1011.8 - 0.0 - - - - - - -
22/12:30am 20.1 NNW 14 19 1012.1 - 0.0 - - - - - - -
22/12:00am 17.7 SW 5 7 1012.5 - 0.0 - - - - - - -
 
Date/Time
EST
Temp

°C
Wind Pressure Rain
since 9am
mm
Weather Cloud Vis
km
Sea
Height
m
Swell
Dir
 
Speed
knots
Gust
knots
hPa Trend Height
m
Period
s
Dir
21/11:30pm 17.1 CALM 0 3 1012.5 - 0.0 - - - - - - -
21/11:00pm 15.7 E 2 4 1012.8 - 0.0 - - - - - - -
21/10:30pm 16.2 E 6 8 1013.0 - 0.0 - - - - - - -
21/10:00pm 15.6 ENE 7 9 1013.2 - 0.0 - - - - - - -
21/09:30pm 15.4 NE 7 9 1013.5 - 0.0 - - - - - - -
21/09:00pm 15.2 NE 8 10 1013.7 - 0.0 - - - - - - -
21/08:30pm 15.5 NE 8 10 1013.5 - 0.0 - - - - - - -
21/08:00pm 15.8 NE 9 12 1013.8 - 0.0 - - - - - - -

Other Formats:

Comma delimited format used in spreadsheet applications
http://www.bom.gov.au/fwo/IDV60701/IDV60701.95890.axf

JavaScript Object Notation format (JSON) in row-major order
http://www.bom.gov.au/fwo/IDV60701/IDV60701.95890.json